Time;durP1;ratioP1;P1;durP2;ratioP2;P2;SDS_P1;SDS_P2;PMS_P1;PMS_P2;Temp;Humidity;BMP_temperature;BMP_pressure;BME280_temperature;BME280_humidity;BME280_pressure;Samples;Min_cycle;Max_cycle;Signal;HPM_P1;HPM_P2
2022/01/23 00:04:12;;;;;;;15.35;9.18;;;;;;;5.26;100.00;103076.56;10004986;29;20055;-64
2022/01/23 00:09:09;;;;;;;13.73;8.30;;;;;;;5.30;100.00;103089.69;10017257;29;20439;-64
2022/01/23 00:19:23;;;;;;;14.13;8.27;;;;;;;5.34;100.00;103090.91;10021292;29;20063;-63
2022/01/23 00:34:51;;;;;;;14.00;8.80;;;;;;;5.45;100.00;103092.88;9996420;29;20108;-66
2022/01/23 00:40:02;;;;;;;14.98;8.55;;;;;;;5.46;100.00;103099.97;10010582;29;20143;-66
2022/01/23 00:45:23;;;;;;;18.30;9.65;;;;;;;5.34;100.00;103090.91;10014148;29;20139;-66
2022/01/23 00:50:18;;;;;;;15.73;9.80;;;;;;;5.44;100.00;103092.03;9996936;29;20127;-64
2022/01/23 00:55:15;;;;;;;15.32;9.80;;;;;;;5.55;100.00;103106.75;9996967;29;20056;-65
2022/01/23 01:00:13;;;;;;;17.23;10.10;;;;;;;5.53;100.00;103095.31;10011231;29;20060;-65
2022/01/23 01:05:41;;;;;;;23.60;10.85;;;;;;;5.37;100.00;103106.75;10002632;29;20118;-66
2022/01/23 01:10:50;;;;;;;18.15;11.63;;;;;;;5.42;100.00;103093.31;10019133;29;20103;-65
2022/01/23 01:32:05;;;;;;;17.55;10.15;;;;;;;5.33;100.00;103124.50;10005132;29;20836;-65
2022/01/23 01:37:15;;;;;;;17.65;8.18;;;;;;;5.31;100.00;103130.16;10018151;29;20080;-66
2022/01/23 01:42:16;;;;;;;15.40;8.30;;;;;;;5.31;100.00;103132.03;10003658;29;20431;-65
2022/01/23 01:47:14;;;;;;;17.05;8.45;;;;;;;5.38;100.00;103130.09;10031265;29;20051;-65
2022/01/23 01:52:24;;;;;;;16.10;8.18;;;;;;;5.37;100.00;103133.88;10010542;29;20127;-65
2022/01/23 01:57:44;;;;;;;14.85;8.25;;;;;;;5.31;100.00;103129.31;10002772;29;20048;-65
2022/01/23 02:13:20;;;;;;;10.38;5.60;;;;;;;5.37;100.00;103117.59;10003222;29;20060;-66
2022/01/23 02:24:49;;;;;;;14.32;7.47;;;;;;;5.37;100.00;103106.75;10003207;29;20064;-65
2022/01/23 02:50:52;;;;;;;19.52;9.32;;;;;;;5.37;100.00;103102.13;10000470;29;20075;-63
2022/01/23 02:55:50;;;;;;;14.45;9.52;;;;;;;5.45;100.00;103114.56;10008844;29;20127;-63
2022/01/23 03:00:48;;;;;;;15.93;9.18;;;;;;;5.42;100.00;103109.59;10000502;29;20080;-65
2022/01/23 03:05:46;;;;;;;14.57;9.35;;;;;;;5.35;100.00;103114.28;10013114;29;20442;-65
2022/01/23 03:10:47;;;;;;;18.08;9.98;;;;;;;5.39;100.00;103120.91;10023172;29;20056;-63
2022/01/23 03:31:19;;;;;;;15.23;7.78;;;;;;;5.39;100.00;103120.91;9999455;29;20103;-66
2022/01/23 03:36:15;;;;;;;14.40;8.60;;;;;;;5.43;100.00;103116.69;10004783;29;20524;-64
2022/01/23 03:41:13;;;;;;;14.98;8.15;;;;;;;5.40;100.00;103111.72;9998771;29;20052;-66
2022/01/23 03:51:19;;;;;;;15.65;8.60;;;;;;;5.39;100.00;103115.50;10000027;29;20071;-65
2022/01/23 03:56:18;;;;;;;16.40;7.00;;;;;;;5.40;100.00;103112.53;10006316;29;20083;-64
2022/01/23 04:01:14;;;;;;;15.48;8.25;;;;;;;5.45;100.00;103106.44;10002664;29;20035;-66
2022/01/23 04:06:11;;;;;;;12.68;7.03;;;;;;;5.49;100.00;103110.38;10014817;29;20055;-66
2022/01/23 04:11:08;;;;;;;13.85;7.45;;;;;;;5.50;100.00;103112.03;10004246;29;20044;-65
2022/01/23 04:16:41;;;;;;;15.35;7.10;;;;;;;5.50;100.00;103122.91;10017415;29;20044;-66
2022/01/23 04:32:44;;;;;;;15.10;8.13;;;;;;;5.55;100.00;103141.22;10033539;29;20079;-64
2022/01/23 04:59:34;;;;;;;18.65;9.38;;;;;;;5.75;100.00;103146.41;9997517;29;20459;-63
2022/01/23 05:08:34;;;;;;;18.35;9.38;;;;;;;5.85;100.00;103154.88;9996491;29;20095;-64
2022/01/23 05:13:32;;;;;;;18.40;9.70;;;;;;;5.87;100.00;103153.59;9997849;29;20073;-65
2022/01/23 05:18:30;;;;;;;19.58;10.50;;;;;;;5.80;100.00;103165.56;9995541;29;20523;-64
2022/01/23 05:23:26;;;;;;;18.45;9.48;;;;;;;5.86;100.00;103175.53;9999629;29;20044;-65
2022/01/23 05:28:23;;;;;;;16.52;9.60;;;;;;;5.90;100.00;103171.31;10024021;29;20079;-66
2022/01/23 05:33:19;;;;;;;18.25;9.70;;;;;;;5.81;100.00;103168.06;9998519;29;20048;-65
2022/01/23 05:38:16;;;;;;;20.75;10.57;;;;;;;5.89;100.00;103169.63;10030888;29;20565;-65
2022/01/23 05:43:12;;;;;;;18.90;10.60;;;;;;;5.91;100.00;103173.78;10007787;29;20135;-64
2022/01/23 05:48:09;;;;;;;15.82;9.70;;;;;;;5.97;100.00;103172.09;10032082;29;20054;-64
2022/01/23 05:53:06;;;;;;;14.27;9.13;;;;;;;5.96;100.00;103175.84;10003561;29;20064;-65
2022/01/23 05:58:03;;;;;;;19.38;9.90;;;;;;;5.94;100.00;103172.56;10005009;29;20147;-65
2022/01/23 06:02:59;;;;;;;18.85;9.73;;;;;;;5.91;100.00;103183.81;10002691;29;20068;-65
2022/01/23 06:07:56;;;;;;;20.45;10.18;;;;;;;5.94;100.00;103188.84;10014960;29;20079;-64
2022/01/23 06:12:53;;;;;;;20.00;9.80;;;;;;;5.91;100.00;103198.22;10002325;29;20116;-65
2022/01/23 06:17:49;;;;;;;18.30;9.25;;;;;;;5.96;100.00;103191.31;10012195;29;20140;-66
2022/01/23 06:22:47;;;;;;;21.52;9.82;;;;;;;6.00;100.00;103196.06;10003126;29;20537;-66
2022/01/23 06:27:43;;;;;;;20.73;9.55;;;;;;;5.98;100.00;103198.19;10008781;29;20143;-64
2022/01/23 06:32:40;;;;;;;20.58;9.35;;;;;;;5.98;100.00;103195.47;10002133;29;20048;-64
2022/01/23 06:37:36;;;;;;;26.33;9.90;;;;;;;5.96;100.00;103203.00;10019773;29;20135;-65
2022/01/23 06:42:33;;;;;;;23.23;10.40;;;;;;;6.05;100.00;103201.66;10001416;29;20052;-63
2022/01/23 06:47:29;;;;;;;25.02;10.50;;;;;;;6.07;100.00;103199.53;10018361;29;20052;-63
2022/01/23 06:52:26;;;;;;;23.05;10.15;;;;;;;6.08;100.00;103195.78;10020956;29;20075;-63
2022/01/23 06:57:22;;;;;;;22.38;9.35;;;;;;;6.05;100.00;103200.84;10018352;29;20463;-63
2022/01/23 07:02:18;;;;;;;20.73;8.10;;;;;;;6.09;100.00;103211.03;10017211;29;20104;-63
2022/01/23 07:07:15;;;;;;;20.55;8.20;;;;;;;6.14;100.00;103217.66;10015921;29;20052;-67
2022/01/23 07:12:12;;;;;;;19.58;8.07;;;;;;;6.13;100.00;103224.13;10027679;29;20131;-67
2022/01/23 07:17:09;;;;;;;19.30;8.00;;;;;;;6.04;100.00;103232.59;10021536;29;20497;-67
2022/01/23 07:22:05;;;;;;;20.55;9.27;;;;;;;6.17;100.00;103237.03;10013130;29;20079;-66
2022/01/23 07:27:12;;;;;;;14.88;8.10;;;;;;;6.18;100.00;103248.75;10019902;29;20078;-67
2022/01/23 07:32:09;;;;;;;23.33;11.30;;;;;;;6.17;100.00;103263.38;10018675;29;20478;-67
2022/01/23 07:37:06;;;;;;;17.48;9.38;;;;;;;6.20;100.00;103284.69;10011977;29;20131;-68
2022/01/23 07:42:02;;;;;;;21.23;9.98;;;;;;;6.20;100.00;103273.81;10030889;29;20063;-66
2022/01/23 07:46:59;;;;;;;24.00;10.20;;;;;;;6.19;100.00;103280.28;10018689;29;20532;-66
2022/01/23 07:51:57;;;;;;;18.20;8.77;;;;;;;6.23;100.00;103284.22;10024554;29;20411;-66
2022/01/23 07:56:53;;;;;;;18.73;9.85;;;;;;;6.29;100.00;103283.34;10031013;29;20067;-64
2022/01/23 08:01:50;;;;;;;21.90;8.50;;;;;;;6.32;100.00;103288.31;10023982;29;20589;-68
2022/01/23 08:06:54;;;;;;;17.70;7.90;;;;;;;6.32;100.00;103293.75;10014776;29;20052;-67
2022/01/23 08:11:50;;;;;;;18.08;7.43;;;;;;;6.32;100.00;103293.75;10011099;29;20044;-68
2022/01/23 08:16:47;;;;;;;21.70;7.60;;;;;;;6.34;100.00;103297.06;10019265;29;20079;-68
2022/01/23 08:21:43;;;;;;;12.20;6.28;;;;;;;6.36;100.00;103308.53;10019323;29;20645;-66
2022/01/23 08:26:40;;;;;;;16.77;6.15;;;;;;;6.43;100.00;103311.16;10012057;29;20154;-67
2022/01/23 08:31:36;;;;;;;14.90;6.57;;;;;;;6.42;100.00;103318.50;10019958;29;20067;-70
2022/01/23 08:36:35;;;;;;;16.35;7.53;;;;;;;6.42;100.00;103314.94;10017345;29;20059;-69
2022/01/23 08:41:50;;;;;;;19.40;8.20;;;;;;;6.46;100.00;103316.16;10014135;29;20103;-71
2022/01/23 08:46:48;;;;;;;15.05;8.07;;;;;;;6.47;100.00;103323.25;10003447;29;20503;-72
2022/01/23 08:51:47;;;;;;;17.67;8.23;;;;;;;6.57;100.00;103328.16;10010911;29;20123;-68
2022/01/23 08:56:43;;;;;;;19.52;9.20;;;;;;;6.57;100.00;103325.44;10016203;29;20047;-69
2022/01/23 09:01:40;;;;;;;25.65;9.27;;;;;;;6.51;100.00;103336.16;10016938;29;20130;-70
2022/01/23 09:06:37;;;;;;;16.15;8.45;;;;;;;6.57;100.00;103339.88;10024325;29;20072;-69
2022/01/23 09:16:31;;;;;;;22.60;9.02;;;;;;;6.55;100.00;103341.16;10019851;29;20047;-70
2022/01/23 09:21:28;;;;;;;28.40;12.35;;;;;;;6.55;100.00;103357.47;10013802;29;20078;-69
2022/01/23 09:26:24;;;;;;;28.65;10.68;;;;;;;6.63;100.00;103354.44;10018013;29;20059;-69
2022/01/23 09:31:48;;;;;;;25.48;11.63;;;;;;;6.66;100.00;103356.69;10026088;29;20048;-69
2022/01/23 09:36:45;;;;;;;25.52;11.05;;;;;;;6.61;100.00;103356.56;10007232;29;20048;-69
2022/01/23 09:41:47;;;;;;;29.83;11.07;;;;;;;6.66;100.00;103351.25;9986097;29;20107;-70
2022/01/23 09:46:46;;;;;;;24.25;9.32;;;;;;;6.67;100.00;103363.81;10000735;29;20548;-70
2022/01/23 09:51:45;;;;;;;23.23;9.52;;;;;;;6.71;100.00;103362.31;10003170;29;20048;-70
2022/01/23 09:56:43;;;;;;;29.00;9.07;;;;;;;6.84;100.00;103373.00;10020659;29;20047;-70
2022/01/23 10:01:45;;;;;;;14.05;6.47;;;;;;;6.77;100.00;103366.81;10013818;29;20071;-69
2022/01/23 10:06:42;;;;;;;16.45;6.82;;;;;;;6.79;100.00;103372.84;10008258;29;20054;-69
2022/01/23 10:11:42;;;;;;;21.13;7.35;;;;;;;6.82;100.00;103386.00;10006220;29;20138;-67
2022/01/23 10:16:39;;;;;;;23.00;7.97;;;;;;;6.81;100.00;103387.06;10013916;29;20115;-67
2022/01/23 10:21:38;;;;;;;20.27;8.48;;;;;;;6.89;100.00;103392.22;10011820;29;20072;-67
2022/01/23 10:26:47;;;;;;;26.52;9.43;;;;;;;6.83;100.00;103401.28;10020477;29;20043;-68
2022/01/23 10:32:02;;;;;;;23.63;9.95;;;;;;;6.85;100.00;103406.50;10013479;29;20064;-68
2022/01/23 10:36:59;;;;;;;26.92;9.23;;;;;;;6.86;100.00;103392.66;10016257;29;20506;-67
2022/01/23 10:42:51;;;;;;;27.83;10.02;;;;;;;6.91;100.00;103394.69;10015146;29;20130;-67
2022/01/23 10:47:53;;;;;;;33.13;12.23;;;;;;;6.97;100.00;103390.25;10016533;29;20096;-67
2022/01/23 10:52:51;;;;;;;32.08;12.98;;;;;;;7.05;100.00;103389.91;10015069;29;20462;-67
2022/01/23 10:57:53;;;;;;;26.48;10.70;;;;;;;7.08;100.00;103392.19;10009869;29;20135;-68
2022/01/23 11:02:50;;;;;;;24.70;9.57;;;;;;;7.16;100.00;103386.44;10012899;29;20134;-68
2022/01/23 11:07:48;;;;;;;24.27;9.93;;;;;;;7.28;100.00;103381.84;10006499;29;20575;-67
2022/01/23 11:17:52;;;;;;;20.70;8.15;;;;;;;7.36;100.00;103364.41;9999598;29;20072;-67
2022/01/23 11:22:48;;;;;;;19.58;9.35;;;;;;;7.46;100.00;103363.84;10005387;29;20490;-67
2022/01/23 11:27:45;;;;;;;31.20;10.20;;;;;;;7.44;100.00;103360.50;10007416;29;20487;-68
2022/01/23 11:32:42;;;;;;;21.45;9.88;;;;;;;7.65;100.00;103365.41;10007183;29;20051;-68
2022/01/23 11:37:47;;;;;;;17.50;7.85;;;;;;;7.71;100.00;103355.50;10010361;29;20103;-68
2022/01/23 11:58:38;;;;;;;13.20;3.50;;;;;;;7.74;100.00;103353.13;10019833;29;20047;-67
2022/01/23 12:03:34;;;;;;;15.00;3.67;;;;;;;7.76;100.00;103353.72;10009350;29;20135;-65
2022/01/23 12:08:35;;;;;;;13.43;3.50;;;;;;;7.89;100.00;103358.13;10004528;29;20513;-65
2022/01/23 12:18:32;;;;;;;11.35;2.63;;;;;;;7.80;100.00;103349.47;10005952;29;20130;-67
2022/01/23 12:23:58;;;;;;;7.85;2.80;;;;;;;7.61;100.00;103356.03;10015321;29;20491;-67
2022/01/23 12:28:55;;;;;;;10.38;2.50;;;;;;;7.66;100.00;103353.47;10010965;29;20138;-67
2022/01/23 12:33:56;;;;;;;10.32;2.30;;;;;;;7.82;100.00;103340.22;10017307;29;20078;-67
2022/01/23 12:39:15;;;;;;;11.35;2.40;;;;;;;7.77;100.00;103344.50;10009707;29;20056;-67
2022/01/23 12:44:23;;;;;;;12.68;2.72;;;;;;;7.69;100.00;103339.38;10021683;29;20047;-67
2022/01/23 12:49:26;;;;;;;12.93;2.45;;;;;;;7.77;100.00;103344.50;10014078;29;20139;-67
2022/01/23 12:54:26;;;;;;;9.75;2.70;;;;;;;7.77;100.00;103341.78;10017900;29;20518;-68
2022/01/23 12:59:33;;;;;;;12.43;2.30;;;;;;;7.70;100.00;103335.56;10013162;29;20051;-68
2022/01/23 13:04:51;;;;;;;11.18;2.88;;;;;;;7.77;100.00;103333.59;10016354;29;20040;-68
2022/01/23 13:10:01;;;;;;;9.68;2.05;;;;;;;7.67;100.00;103337.97;10019455;29;20095;-67
2022/01/23 13:30:46;;;;;;;6.05;1.55;;;;;;;7.58;100.00;103332.00;10024083;29;20144;-67
2022/01/23 13:35:50;;;;;;;5.65;1.42;;;;;;;7.53;100.00;103345.50;10018730;29;20562;-68
2022/01/23 13:40:56;;;;;;;9.10;2.42;;;;;;;7.67;100.00;103352.41;10013438;29;20537;-67
2022/01/23 14:02:18;;;;;;;6.20;1.60;;;;;;;7.73;100.00;103348.75;10015884;29;20622;-68
2022/01/23 14:07:27;;;;;;;7.97;1.48;;;;;;;7.72;100.00;103349.78;9998502;29;20112;-68
2022/01/23 14:12:26;;;;;;;6.50;1.50;;;;;;;7.65;100.00;103351.78;10017645;29;20090;-68
2022/01/23 14:17:54;;;;;;;6.50;1.90;;;;;;;7.61;100.00;103356.03;10008299;29;20481;-67
2022/01/23 14:22:53;;;;;;;6.43;1.92;;;;;;;7.58;100.00;103372.84;10000333;29;20044;-68
2022/01/23 14:28:11;;;;;;;8.25;2.03;;;;;;;7.61;100.00;103366.94;10000279;29;20076;-68
2022/01/23 14:33:31;;;;;;;4.25;1.10;;;;;;;7.55;100.00;103373.31;10001712;29;20067;-67
2022/01/23 14:38:59;;;;;;;7.25;1.40;;;;;;;7.57;100.00;103371.22;10024607;29;20073;-68
2022/01/23 14:43:56;;;;;;;7.15;1.92;;;;;;;7.54;100.00;103374.38;10012398;29;20052;-67
2022/01/23 14:48:59;;;;;;;9.82;1.60;;;;;;;7.58;100.00;103383.75;10019639;29;20043;-67
2022/01/23 14:53:56;;;;;;;5.13;1.52;;;;;;;7.56;100.00;103383.16;9993005;29;20079;-68
2022/01/23 14:58:52;;;;;;;6.82;1.13;;;;;;;7.59;100.00;103390.88;10003614;29;20558;-68
2022/01/23 15:03:52;;;;;;;10.43;2.17;;;;;;;7.48;100.00;103400.66;10002716;29;20048;-68
2022/01/23 15:09:06;;;;;;;7.85;2.53;;;;;;;7.49;100.00;103401.47;10000286;29;20075;-68
2022/01/23 15:14:05;;;;;;;8.63;2.65;;;;;;;7.47;100.00;103409.03;10016050;29;20094;-68
2022/01/23 15:19:05;;;;;;;7.65;2.63;;;;;;;7.40;100.00;103405.56;10021097;29;20138;-68
2022/01/23 15:24:03;;;;;;;6.93;1.95;;;;;;;7.32;100.00;103406.75;10021586;29;20056;-67
2022/01/23 15:28:59;;;;;;;7.43;1.77;;;;;;;7.43;100.00;103408.69;10007562;29;20475;-68
2022/01/23 15:33:56;;;;;;;9.43;3.20;;;;;;;7.39;100.00;103412.91;10012021;29;20051;-68
2022/01/23 15:38:52;;;;;;;20.55;7.32;;;;;;;7.44;100.00;103420.41;10006315;29;20127;-69
2022/01/23 15:43:52;;;;;;;11.55;4.15;;;;;;;7.32;100.00;103413.00;10016683;29;20118;-68
2022/01/23 15:48:49;;;;;;;12.15;3.28;;;;;;;7.28;100.00;103417.25;10021166;29;20059;-68
2022/01/23 15:53:46;;;;;;;10.20;2.42;;;;;;;7.19;100.00;103410.44;10018408;29;20044;-68
2022/01/23 15:58:43;;;;;;;9.43;4.13;;;;;;;7.05;100.00;103411.69;10036717;29;20162;-68
2022/01/23 16:03:40;;;;;;;13.30;4.68;;;;;;;7.05;100.00;103411.69;10022557;29;20051;-68
2022/01/23 16:08:36;;;;;;;17.65;7.18;;;;;;;6.86;100.00;103428.00;10021328;29;20110;-67
2022/01/23 16:13:34;;;;;;;12.75;4.47;;;;;;;6.86;100.00;103425.28;10017131;29;20458;-73
2022/01/23 16:18:31;;;;;;;9.50;3.25;;;;;;;6.94;100.00;103424.16;10002155;29;20096;-69
2022/01/23 16:23:27;;;;;;;9.00;2.70;;;;;;;6.73;100.00;103428.16;10007318;29;20048;-68
2022/01/23 16:28:39;;;;;;;7.10;2.30;;;;;;;6.86;100.00;103430.72;9996363;29;20400;-68
2022/01/23 16:33:36;;;;;;;5.40;2.30;;;;;;;6.80;100.00;103428.94;10000690;29;20086;-68
2022/01/23 16:38:33;;;;;;;8.68;3.10;;;;;;;6.90;100.00;103431.94;10014726;29;20632;-67
2022/01/23 16:43:31;;;;;;;5.82;1.92;;;;;;;6.94;100.00;103427.72;9999062;29;20131;-68
2022/01/23 16:48:28;;;;;;;7.05;2.33;;;;;;;6.89;100.00;103429.44;10012112;29;20056;-68
2022/01/23 16:53:26;;;;;;;9.60;2.72;;;;;;;6.84;100.00;103438.28;10001176;29;20502;-68
2022/01/23 16:58:29;;;;;;;7.95;3.58;;;;;;;6.81;100.00;103433.28;10011113;29;20090;-70
2022/01/23 17:03:26;;;;;;;;;;;;;;;6.90;100.00;103431.94;10004820;29;20147;-69
2022/01/23 17:08:24;;;;;;;5.90;2.28;;;;;;;6.76;100.00;103440.47;10006111;29;19977;-68
2022/01/23 17:13:21;;;;;;;4.88;1.60;;;;;;;6.74;100.00;103433.38;10018132;29;20049;-67
2022/01/23 17:18:18;;;;;;;6.47;1.35;;;;;;;6.66;100.00;103436.41;10015459;29;20067;-66
2022/01/23 17:23:14;;;;;;;4.95;1.27;;;;;;;6.72;100.00;103437.38;10022801;29;20167;-68
2022/01/23 17:28:11;;;;;;;4.68;1.50;;;;;;;6.64;100.00;103438.50;10019520;29;20095;-67
2022/01/23 17:33:07;;;;;;;7.38;2.10;;;;;;;6.60;100.00;103436.47;10019042;29;20151;-67
2022/01/23 17:38:04;;;;;;;7.22;1.77;;;;;;;6.47;100.00;103434.69;10015446;29;20138;-68
2022/01/23 17:43:01;;;;;;;8.35;3.22;;;;;;;6.45;100.00;103432.22;10007183;29;20040;-67
2022/01/23 17:48:18;;;;;;;7.22;2.25;;;;;;;6.35;100.00;103441.91;9995625;29;20434;-67
2022/01/23 17:53:14;;;;;;;7.35;2.08;;;;;;;6.27;100.00;103432.16;9995645;29;20048;-67
2022/01/23 17:58:10;;;;;;;5.80;2.50;;;;;;;6.36;100.00;103441.69;10005503;29;20096;-68
2022/01/23 18:03:08;;;;;;;7.85;2.55;;;;;;;6.32;100.00;103440.47;10002888;29;20056;-66
2022/01/23 18:08:06;;;;;;;7.75;2.90;;;;;;;6.41;100.00;103444.56;10019440;29;20055;-67
2022/01/23 18:13:05;;;;;;;9.38;2.78;;;;;;;6.35;100.00;103445.44;10010913;29;20079;-67
2022/01/23 18:18:04;;;;;;;8.07;3.42;;;;;;;6.34;100.00;103454.69;9994130;29;20072;-67
2022/01/23 18:23:01;;;;;;;9.90;1.90;;;;;;;6.33;100.00;103458.44;10002480;29;20099;-67
2022/01/23 18:27:58;;;;;;;7.10;2.92;;;;;;;6.37;100.00;103459.66;10016075;29;20082;-67
2022/01/23 18:32:56;;;;;;;8.48;3.45;;;;;;;6.34;100.00;103470.16;10011092;29;20770;-68
2022/01/23 18:37:53;;;;;;;6.18;2.40;;;;;;;6.33;100.00;103469.28;9998723;29;20059;-67
2022/01/23 18:42:50;;;;;;;6.15;3.03;;;;;;;6.30;100.00;103461.59;10006566;29;20107;-67
2022/01/23 18:47:46;;;;;;;9.60;3.85;;;;;;;6.17;100.00;103469.84;10026606;28;20055;-67
2022/01/23 18:53:04;;;;;;;8.73;4.20;;;;;;;6.26;100.00;103463.09;10019990;29;20191;-67
2022/01/23 18:58:06;;;;;;;10.98;4.32;;;;;;;6.27;100.00;103475.63;10012174;29;20510;-67
2022/01/23 19:03:12;;;;;;;7.20;3.90;;;;;;;6.27;100.00;103470.19;10007484;29;20506;-67
2022/01/23 19:08:16;;;;;;;8.20;4.13;;;;;;;6.19;100.00;103478.63;10013307;29;20054;-67
2022/01/23 19:13:18;;;;;;;7.25;4.32;;;;;;;6.15;100.00;103477.38;10014308;29;20079;-67
2022/01/23 19:18:15;;;;;;;8.45;4.38;;;;;;;6.13;100.00;103479.47;10007828;29;20132;-68
2022/01/23 19:23:12;;;;;;;10.18;5.20;;;;;;;6.04;100.00;103482.47;10010086;29;20134;-68
2022/01/23 19:28:09;;;;;;;10.15;5.82;;;;;;;6.01;100.00;103480.22;10021413;29;20048;-68
2022/01/23 19:33:08;;;;;;;12.43;6.93;;;;;;;6.01;100.00;103477.50;10008644;29;20067;-68
2022/01/23 19:38:08;;;;;;;12.18;6.75;;;;;;;5.95;100.00;103481.09;10005590;29;20095;-68
2022/01/23 19:43:23;;;;;;;9.25;6.45;;;;;;;6.02;100.00;103471.00;10003023;29;20063;-67
2022/01/23 19:48:27;;;;;;;11.57;7.03;;;;;;;6.04;100.00;103470.78;9994634;29;20043;-67
2022/01/23 19:53:23;;;;;;;;;;;;;;;6.03;100.00;103475.38;10000448;29;20523;-68
2022/01/23 19:58:20;;;;;;;13.18;6.55;;;;;;;6.00;100.00;103470.38;10001019;29;20001;-68
2022/01/23 20:03:19;;;;;;;10.27;6.97;;;;;;;5.84;100.00;103476.31;10004288;29;20474;-68
2022/01/23 20:08:18;;;;;;;18.23;9.35;;;;;;;6.03;100.00;103475.38;9996155;29;20113;-68
2022/01/23 20:13:16;;;;;;;16.42;8.45;;;;;;;6.00;100.00;103473.09;10000507;29;20188;-67
2022/01/23 20:18:13;;;;;;;13.75;8.75;;;;;;;6.01;100.00;103472.06;9999890;29;20473;-67
2022/01/23 20:23:10;;;;;;;15.15;9.80;;;;;;;5.97;100.00;103467.28;9997963;29;20139;-68
2022/01/23 20:28:06;;;;;;;10.45;6.35;;;;;;;5.95;100.00;103462.06;10020670;29;20052;-68
2022/01/23 20:33:03;;;;;;;12.82;8.18;;;;;;;5.94;100.00;103460.41;10002374;29;20075;-67
2022/01/23 20:37:59;;;;;;;13.88;8.13;;;;;;;5.88;100.00;103461.25;10001071;29;20098;-68
2022/01/23 20:42:55;;;;;;;15.95;8.15;;;;;;;5.87;100.00;103455.00;9996453;29;20534;-67
2022/01/23 20:47:52;;;;;;;16.10;10.82;;;;;;;5.92;100.00;103451.63;9994386;29;20095;-68
2022/01/23 20:57:48;;;;;;;13.65;7.63;;;;;;;5.72;100.00;103461.78;10008374;29;20098;-68
2022/01/23 21:02:48;;;;;;;15.13;8.65;;;;;;;5.85;100.00;103462.53;10012075;29;20047;-67
2022/01/23 21:07:44;;;;;;;14.13;8.70;;;;;;;5.78;100.00;103466.31;9996965;29;20054;-67
2022/01/23 21:12:41;;;;;;;12.32;8.23;;;;;;;5.80;100.00;103458.78;10003949;29;20471;-65
2022/01/23 21:17:48;;;;;;;16.33;9.80;;;;;;;5.82;100.00;103464.84;10007438;29;20087;-65
2022/01/23 21:33:22;;;;;;;11.18;8.35;;;;;;;5.82;100.00;103472.97;10023076;29;20059;-66
2022/01/23 21:43:34;;;;;;;14.98;9.82;;;;;;;5.65;100.00;103470.78;10014633;29;20482;-64
2022/01/23 21:48:32;;;;;;;11.90;7.90;;;;;;;5.83;100.00;103474.66;10013057;29;20558;-64
2022/01/23 21:53:29;;;;;;;16.65;8.95;;;;;;;5.77;100.00;103480.94;10006340;29;20598;-65
2022/01/23 21:58:26;;;;;;;15.98;10.27;;;;;;;5.85;100.00;103483.41;10009935;29;20107;-64
2022/01/23 22:03:23;;;;;;;15.48;8.90;;;;;;;5.87;100.00;103484.88;10004098;29;20656;-64
2022/01/23 22:08:22;;;;;;;17.70;9.73;;;;;;;5.85;100.00;103484.25;10028849;29;20111;-64
2022/01/23 22:15:56;;;;;;;14.27;8.57;;;;;;;5.82;100.00;103478.41;10011986;29;20083;-66
2022/01/23 22:19:01;;;;;;;11.80;8.13;;;;;;;5.66;100.00;103475.19;10023414;29;20094;-65
2022/01/23 22:28:55;;;;;;;11.38;7.65;;;;;;;5.62;100.00;103462.25;10014609;29;20502;-65
2022/01/23 22:33:51;;;;;;;13.82;7.55;;;;;;;5.57;100.00;103460.19;10001520;29;20078;-65
2022/01/23 22:38:48;;;;;;;11.25;7.43;;;;;;;5.63;100.00;103459.31;10015538;29;20415;-67
2022/01/23 22:43:57;;;;;;;12.65;8.25;;;;;;;5.57;100.00;103468.34;10006877;29;20052;-67
2022/01/23 22:48:57;;;;;;;13.88;8.02;;;;;;;5.46;100.00;103463.59;10009459;29;20115;-67
2022/01/23 22:53:53;;;;;;;16.58;8.90;;;;;;;5.49;100.00;103463.13;10007187;29;20082;-67
2022/01/23 22:58:51;;;;;;;12.63;8.75;;;;;;;5.54;100.00;103463.31;10031070;29;20843;-67
2022/01/23 23:03:48;;;;;;;11.27;7.55;;;;;;;5.56;100.00;103461.22;10014290;29;20204;-67
2022/01/23 23:08:45;;;;;;;12.23;8.02;;;;;;;5.59;100.00;103462.66;10022614;29;20134;-67
2022/01/23 23:13:44;;;;;;;12.73;7.95;;;;;;;5.54;100.00;103460.59;10017754;29;20122;-67
2022/01/23 23:18:46;;;;;;;13.07;7.72;;;;;;;5.47;100.00;103459.81;10009158;29;20044;-66
2022/01/23 23:23:44;;;;;;;14.00;8.18;;;;;;;5.57;100.00;103454.75;10004904;29;20047;-66
2022/01/23 23:28:42;;;;;;;12.00;7.85;;;;;;;5.58;100.00;103467.28;10022404;29;20075;-66
2022/01/23 23:33:39;;;;;;;12.50;8.15;;;;;;;5.58;100.00;103466.44;10019175;29;20039;-66
2022/01/23 23:38:36;;;;;;;9.82;6.70;;;;;;;5.57;100.00;103457.47;10036091;29;20048;-66
2022/01/23 23:48:59;;;;;;;9.95;6.80;;;;;;;5.56;100.00;103442.22;9998511;29;20067;-67
2022/01/23 23:53:58;;;;;;;11.98;6.55;;;;;;;5.60;100.00;103443.47;9998147;29;20044;-67
2022/01/23 23:58:54;;;;;;;9.85;6.32;;;;;;;5.70;100.00;103449.22;10007812;29;20571;-66
